TimeCEST,TemperatureF,Dew PointF,Humidity,Sea Level PressureIn,VisibilityMPH,Wind Direction,Wind SpeedMPH,Gust SpeedMPH,PrecipitationIn,Events,Conditions,WindDirDegrees,DateUTC
7:00 AM,71.6,59.0,64,30.01,-9999.0,East,3.5,-,N/A,,Clear,80,2013-07-20 05:00:00
7:30 AM,71.6,59.0,64,30.01,-9999.0,East,6.9,-,N/A,,Clear,90,2013-07-20 05:30:00
8:00 AM,71.6,60.8,69,30.01,-9999.0,East,5.8,-,N/A,,Clear,100,2013-07-20 06:00:00
8:30 AM,73.4,60.8,65,30.01,-9999.0,ENE,5.8,-,N/A,,Clear,70,2013-07-20 06:30:00
9:00 AM,75.2,60.8,61,30.04,-9999.0,East,8.1,-,N/A,,Clear,100,2013-07-20 07:00:00
9:30 AM,77.0,62.6,61,30.04,-9999.0,East,6.9,-,N/A,,Clear,90,2013-07-20 07:30:00
10:00 AM,77.0,62.6,61,30.04,-9999.0,East,6.9,-,N/A,,Clear,90,2013-07-20 08:00:00
10:30 AM,80.6,64.4,58,30.04,-9999.0,East,6.9,-,N/A,,Clear,100,2013-07-20 08:30:00
11:00 AM,80.6,64.4,58,30.04,-9999.0,East,3.5,-,N/A,,Clear,80,2013-07-20 09:00:00
11:30 AM,82.4,62.6,51,30.04,-9999.0,East,4.6,-,N/A,,Clear,80,2013-07-20 09:30:00
12:00 PM,84.2,64.4,51,30.04,-9999.0,Variable,3.5,-,N/A,,Clear,0,2013-07-20 10:00:00
12:30 PM,84.2,62.6,48,30.01,-9999.0,Variable,3.5,-,N/A,,Clear,0,2013-07-20 10:30:00
1:00 PM,86.0,64.4,48,30.01,-9999.0,Variable,2.3,-,N/A,,Clear,0,2013-07-20 11:00:00
1:30 PM,87.8,64.4,46,30.01,-9999.0,Variable,2.3,-,N/A,,Clear,0,2013-07-20 11:30:00
2:00 PM,91.4,66.2,43,30.01,-9999.0,Variable,2.3,-,N/A,,Clear,0,2013-07-20 12:00:00
2:30 PM,93.2,66.2,41,29.98,-9999.0,Variable,1.2,-,N/A,,Clear,0,2013-07-20 12:30:00
3:00 PM,93.2,64.4,38,29.98,-9999.0,SSW,6.9,-,N/A,,Clear,200,2013-07-20 13:00:00
3:30 PM,93.2,62.6,36,29.98,-9999.0,Variable,5.8,-,N/A,,Clear,0,2013-07-20 13:30:00
4:00 PM,95.0,64.4,36,29.98,-9999.0,WSW,5.8,-,N/A,,Clear,250,2013-07-20 14:00:00
4:30 PM,95.0,62.6,34,29.98,-9999.0,South,8.1,-,N/A,,Clear,190,2013-07-20 14:30:00
5:00 PM,96.8,64.4,34,29.95,6.2,South,9.2,-,N/A,,Partly Cloudy,170,2013-07-20 15:00:00
5:30 PM,96.8,64.4,34,29.95,6.2,Variable,5.8,-,N/A,,Partly Cloudy,0,2013-07-20 15:30:00
6:00 PM,91.4,60.8,36,29.95,6.2,SSW,6.9,-,N/A,,Partly Cloudy,200,2013-07-20 16:00:00
6:30 PM,93.2,62.6,36,29.95,6.2,South,8.1,-,N/A,,Partly Cloudy,190,2013-07-20 16:30:00
7:00 PM,95.0,62.6,34,29.92,6.2,SSW,9.2,-,N/A,,Partly Cloudy,200,2013-07-20 17:00:00
7:30 PM,95.0,62.6,34,29.92,6.2,South,8.1,-,N/A,,Partly Cloudy,190,2013-07-20 17:30:00
8:00 PM,93.2,62.6,36,29.92,6.2,SSW,5.8,-,N/A,,Partly Cloudy,200,2013-07-20 18:00:00
8:30 PM,91.4,60.8,36,29.92,6.2,SSW,6.9,-,N/A,,Partly Cloudy,200,2013-07-20 18:30:00
9:00 PM,89.6,60.8,38,29.92,6.2,WSW,3.5,-,N/A,,Partly Cloudy,240,2013-07-20 19:00:00
9:30 PM,87.8,59.0,38,29.95,-9999.0,Variable,2.3,-,N/A,,Clear,0,2013-07-20 19:30:00
10:00 PM,86.0,59.0,40,29.95,-9999.0,West,3.5,-,N/A,,Clear,270,2013-07-20 20:00:00